Time;durP1;ratioP1;P1;durP2;ratioP2;P2;SDS_P1;SDS_P2;PMS_P1;PMS_P2;Temp;Humidity;BMP_temperature;BMP_pressure;BME280_temperature;BME280_humidity;BME280_pressure;Samples;Min_cycle;Max_cycle;Signal;HPM_P1;HPM_P2
2022/09/27 00:01:45;;;;;;;4.40;0.80;;;;;;;17.74;92.04;99005.16;4980733;28;20051;-86
2022/09/27 00:04:11;;;;;;;2.05;0.75;;;;;;;17.72;90.80;99009.97;4977827;28;20054;-90
2022/09/27 00:06:37;;;;;;;2.13;1.00;;;;;;;17.83;90.08;98994.84;4977100;28;20034;-88
2022/09/27 00:09:03;;;;;;;2.25;0.93;;;;;;;17.96;89.05;98997.97;4993176;28;20038;-83
2022/09/27 00:11:35;;;;;;;1.80;0.80;;;;;;;17.87;88.91;99001.31;4980305;28;20039;-86
2022/09/27 00:14:01;;;;;;;1.50;0.73;;;;;;;17.84;89.77;99012.53;4980577;28;20435;-86
2022/09/27 00:16:29;;;;;;;1.17;0.88;;;;;;;17.80;91.01;99022.13;4978083;28;20042;-85
2022/09/27 00:19:04;;;;;;;4.78;0.95;;;;;;;17.73;91.26;99026.84;4978107;28;20065;-86
2022/09/27 00:21:30;;;;;;;8.38;0.90;;;;;;;17.39;95.17;99020.66;4979984;28;20039;-88
2022/09/27 00:23:57;;;;;;;5.72;1.13;;;;;;;17.41;96.29;99015.84;4983818;28;20102;-84
2022/09/27 00:26:24;;;;;;;3.38;0.93;;;;;;;17.26;98.71;99011.06;4986122;28;20037;-84
2022/09/27 00:28:49;;;;;;;2.63;0.88;;;;;;;17.16;100.00;99004.72;4985869;28;20050;-86
2022/09/27 00:31:28;;;;;;;1.70;1.00;;;;;;;17.10;100.00;99003.00;4982554;28;20131;-84
2022/09/27 00:33:56;;;;;;;5.55;1.35;;;;;;;17.08;100.00;99007.78;4985473;28;20043;-88
2022/09/27 00:36:24;;;;;;;2.70;1.38;;;;;;;17.11;100.00;98994.72;4979719;28;20034;-85
2022/09/27 00:38:53;;;;;;;3.65;1.10;;;;;;;17.09;100.00;98998.69;4970655;28;20047;-85
2022/09/27 00:41:22;;;;;;;4.80;0.85;;;;;;;17.15;100.00;98992.38;4989392;28;20061;-84
2022/09/27 00:43:55;;;;;;;2.63;0.88;;;;;;;17.09;99.95;98988.00;4994636;28;20050;-84
2022/09/27 00:46:34;;;;;;;2.05;0.98;;;;;;;17.18;100.00;98987.34;4990549;28;20031;-86
2022/09/27 00:49:32;;;;;;;2.75;1.00;;;;;;;17.00;100.00;98985.69;4994007;28;20027;-83
2022/09/27 00:52:02;;;;;;;2.65;1.30;;;;;;;16.85;100.00;98973.91;4999321;28;20525;-85
2022/09/27 00:54:32;;;;;;;3.05;0.93;;;;;;;16.82;100.00;98977.06;4976796;28;20093;-84
2022/09/27 00:56:59;;;;;;;1.25;0.80;;;;;;;17.02;100.00;98967.53;4978610;28;20030;-85
2022/09/27 00:59:32;;;;;;;4.10;1.10;;;;;;;17.04;100.00;98965.44;4977135;28;20035;-84
2022/09/27 01:01:58;;;;;;;3.50;1.05;;;;;;;16.88;100.00;98966.22;4959036;28;20138;-84
2022/09/27 01:04:28;;;;;;;2.42;0.80;;;;;;;16.84;100.00;98965.06;4958677;28;20043;-85
2022/09/27 01:06:54;;;;;;;2.97;1.08;;;;;;;16.78;100.00;98959.88;4976398;28;20046;-84
2022/09/27 01:09:20;;;;;;;1.75;0.98;;;;;;;16.70;100.00;98963.75;4976830;28;20023;-84
2022/09/27 01:11:58;;;;;;;1.67;0.90;;;;;;;16.67;100.00;98958.88;4959654;28;20133;-88
2022/09/27 01:14:35;;;;;;;2.45;1.25;;;;;;;16.75;100.00;98950.47;4977777;28;20099;-90
2022/09/27 01:17:30;;;;;;;2.95;1.10;;;;;;;16.64;100.00;98943.28;4984288;28;20415;-84
2022/09/27 01:20:39;;;;;;;3.17;1.33;;;;;;;16.43;100.00;98941.28;4990879;28;20038;-84
2022/09/27 01:23:26;;;;;;;2.85;2.00;;;;;;;16.36;100.00;98941.41;4962111;28;20133;-90
2022/09/27 01:26:01;;;;;;;2.53;1.88;;;;;;;16.30;100.00;98928.19;4958564;28;20499;-86
2022/09/27 01:28:45;;;;;;;7.38;3.28;;;;;;;16.34;100.00;98915.97;4961120;28;20373;-89
2022/09/27 01:31:20;;;;;;;7.70;4.32;;;;;;;16.41;100.00;98911.25;4976922;28;20043;-86
2022/09/27 01:33:56;;;;;;;10.93;5.32;;;;;;;16.36;100.00;98895.97;4954517;29;20038;-86
2022/09/27 01:36:55;;;;;;;11.23;5.97;;;;;;;16.33;100.00;98892.94;4956084;29;20045;-86
2022/09/27 01:39:44;;;;;;;10.27;7.07;;;;;;;16.49;100.00;98892.19;4956327;28;20130;-86
2022/09/27 01:42:36;;;;;;;16.25;9.82;;;;;;;16.48;100.00;98890.53;4956562;28;20075;-88
2022/09/27 01:45:18;;;;;;;14.05;9.85;;;;;;;16.38;100.00;98898.38;4955096;29;20512;-87
2022/09/27 01:48:00;;;;;;;19.55;10.30;;;;;;;16.37;100.00;98896.78;4954718;29;20493;-85
2022/09/27 01:51:10;;;;;;;11.57;8.07;;;;;;;16.40;100.00;98905.13;4956116;29;20047;-85
2022/09/27 01:53:40;;;;;;;12.63;8.10;;;;;;;16.26;100.00;98908.31;4972325;29;20054;-85
2022/09/27 01:56:40;;;;;;;13.43;8.05;;;;;;;16.26;100.00;98909.13;4971531;28;20126;-84
2022/09/27 01:59:29;;;;;;;11.93;8.27;;;;;;;16.23;100.00;98898.09;4939746;29;20106;-86
2022/09/27 02:02:25;;;;;;;13.50;8.98;;;;;;;16.18;100.00;98889.97;4960074;28;20082;-85
2022/09/27 02:05:54;;;;;;;17.55;8.65;;;;;;;16.30;100.00;98888.09;4898375;29;20578;-84
2022/09/27 02:08:44;;;;;;;15.38;9.18;;;;;;;16.40;100.00;98897.09;4904177;29;20051;-85
2022/09/27 02:11:20;;;;;;;16.80;9.98;;;;;;;16.53;100.00;98901.34;4866490;29;20093;-85
2022/09/27 02:14:10;;;;;;;14.63;10.70;;;;;;;16.24;100.00;98892.50;4866938;29;20135;-85
2022/09/27 02:16:49;;;;;;;17.63;11.90;;;;;;;16.12;100.00;98886.38;4895910;29;20044;-84
2022/09/27 02:19:39;;;;;;;16.83;11.75;;;;;;;16.18;100.00;98880.09;4921259;29;20044;-88
2022/09/27 02:22:31;;;;;;;21.67;14.05;;;;;;;16.16;100.00;98879.53;4904033;29;20045;-86
2022/09/27 02:25:24;;;;;;;20.33;14.60;;;;;;;16.21;100.00;98881.47;4921024;29;20104;-86
2022/09/27 02:28:21;;;;;;;24.85;13.02;;;;;;;16.28;100.00;98874.13;4899206;29;20045;-86
2022/09/27 02:30:46;;;;;;;20.67;15.38;;;;;;;16.00;100.00;98857.06;4845965;29;20495;-86
2022/09/27 02:33:23;;;;;;;24.20;14.95;;;;;;;15.89;100.00;98844.53;4900297;29;20558;-87
2022/09/27 02:35:52;;;;;;;23.98;15.00;;;;;;;15.93;100.00;98845.69;4906556;29;20090;-91
2022/09/27 02:38:18;;;;;;;27.33;14.90;;;;;;;15.97;100.00;98846.03;4958499;29;20043;-90
2022/09/27 02:40:46;;;;;;;21.60;14.85;;;;;;;15.94;100.00;98852.63;4958452;29;20034;-89
2022/09/27 02:43:16;;;;;;;21.42;15.02;;;;;;;15.90;100.00;98848.84;4959470;28;20039;-87
2022/09/27 02:46:30;;;;;;;21.17;14.13;;;;;;;16.15;100.00;98853.03;4958083;29;20028;-87
2022/09/27 02:49:14;;;;;;;22.88;15.27;;;;;;;15.99;100.00;98854.59;4884748;29;20032;-86
2022/09/27 02:51:49;;;;;;;26.63;16.30;;;;;;;15.98;100.00;98863.66;4900001;29;20049;-90
2022/09/27 02:54:28;;;;;;;23.70;16.98;;;;;;;15.85;100.00;98861.25;4899432;29;20059;-89
2022/09/27 02:57:32;;;;;;;30.98;19.88;;;;;;;15.72;100.00;98865.00;4900267;29;20061;-87
2022/09/27 03:00:17;;;;;;;28.52;19.35;;;;;;;15.82;100.00;98870.56;4883841;29;20136;-89
2022/09/27 03:03:34;;;;;;;27.25;19.90;;;;;;;15.90;100.00;98867.53;4900334;29;20044;-86
2022/09/27 03:06:04;;;;;;;33.70;22.50;;;;;;;15.70;100.00;98866.28;4899244;29;20096;-90
2022/09/27 03:08:29;;;;;;;44.97;24.10;;;;;;;15.61;100.00;98865.81;4899375;29;20673;-89
2022/09/27 03:10:55;;;;;;;34.38;23.65;;;;;;;15.57;100.00;98863.88;4905084;29;20048;-90
2022/09/27 03:13:21;;;;;;;37.15;23.20;;;;;;;15.56;100.00;98855.06;4885958;29;20536;-86
2022/09/27 03:15:47;;;;;;;35.13;23.80;;;;;;;15.53;100.00;98850.19;4898850;29;20048;-88
2022/09/27 03:18:31;;;;;;;35.20;24.23;;;;;;;15.61;100.00;98836.44;4904528;29;20056;-91
2022/09/27 03:21:16;;;;;;;36.63;23.73;;;;;;;15.69;100.00;98838.78;4958710;29;20102;-88
2022/09/27 03:23:42;;;;;;;34.80;24.63;;;;;;;15.62;100.00;98831.94;4966270;29;20061;-86
2022/09/27 03:26:08;;;;;;;35.45;23.73;;;;;;;15.64;100.00;98825.31;4956469;29;20382;-86
2022/09/27 03:28:34;;;;;;;40.20;24.90;;;;;;;15.66;100.00;98823.22;4940656;29;20039;-86
2022/09/27 03:31:00;;;;;;;36.92;23.60;;;;;;;15.58;100.00;98814.78;4958039;28;20137;-86
2022/09/27 03:33:46;;;;;;;36.15;24.98;;;;;;;15.62;100.00;98814.06;4950207;29;20053;-85
2022/09/27 03:36:12;;;;;;;37.05;24.60;;;;;;;15.61;100.00;98804.41;4955870;29;20130;-85
2022/09/27 03:38:37;;;;;;;40.08;25.00;;;;;;;15.70;100.00;98811.03;4957269;28;20031;-83
2022/09/27 03:41:05;;;;;;;39.63;25.65;;;;;;;15.41;100.00;98804.75;4955617;28;20102;-84
2022/09/27 03:43:30;;;;;;;36.10;24.73;;;;;;;15.28;100.00;98798.91;4955277;29;20070;-88
2022/09/27 03:46:00;;;;;;;38.08;25.52;;;;;;;15.09;100.00;98800.06;4956250;29;20482;-87
2022/09/27 03:48:25;;;;;;;42.20;26.67;;;;;;;14.91;100.00;98783.13;4955703;29;20046;-89
2022/09/27 03:50:51;;;;;;;38.17;26.40;;;;;;;14.91;100.00;98777.78;4956267;29;20070;-92
2022/09/27 03:53:16;;;;;;;39.78;23.77;;;;;;;15.02;100.00;98782.31;4956637;29;20039;-89
2022/09/27 03:55:44;;;;;;;34.47;23.13;;;;;;;14.95;100.00;98778.13;4956774;29;20031;-88
2022/09/27 03:58:10;;;;;;;29.42;19.75;;;;;;;14.87;100.00;98776.66;4957565;29;20089;-87
2022/09/27 04:00:36;;;;;;;27.63;18.60;;;;;;;14.88;100.00;98766.78;4958506;29;20485;-87
2022/09/27 04:03:01;;;;;;;32.03;19.40;;;;;;;15.01;100.00;98751.31;4962096;29;20123;-89
2022/09/27 04:05:28;;;;;;;35.83;18.20;;;;;;;14.91;100.00;98761.00;4961107;28;20098;-88
2022/09/27 04:08:09;;;;;;;31.58;17.83;;;;;;;14.82;100.00;98755.19;4961108;29;20041;-88
2022/09/27 04:10:35;;;;;;;30.55;18.75;;;;;;;14.85;100.00;98762.72;4958011;29;20054;-90
2022/09/27 04:13:01;;;;;;;30.20;18.38;;;;;;;14.79;100.00;98766.31;4957655;29;20031;-88
2022/09/27 04:15:32;;;;;;;28.15;19.27;;;;;;;14.94;100.00;98769.34;4957234;29;20043;-87
2022/09/27 04:18:23;;;;;;;28.25;19.40;;;;;;;14.86;100.00;98769.69;4957072;29;20044;-90
2022/09/27 04:21:08;;;;;;;31.92;19.33;;;;;;;14.96;100.00;98774.44;4961310;29;20053;-85
2022/09/27 04:23:37;;;;;;;30.48;18.83;;;;;;;15.00;100.00;98779.06;4961188;29;20063;-91
2022/09/27 04:26:04;;;;;;;32.10;20.20;;;;;;;14.81;100.00;98772.25;4960883;29;20033;-87
2022/09/27 04:28:52;;;;;;;32.45;20.42;;;;;;;14.42;100.00;98767.53;4958546;29;20058;-91
2022/09/27 04:31:18;;;;;;;29.45;18.58;;;;;;;14.37;100.00;98759.44;4958542;29;20047;-89
2022/09/27 04:34:03;;;;;;;28.83;18.83;;;;;;;14.39;100.00;98762.66;4962476;29;20099;-90
2022/09/27 04:36:35;;;;;;;29.33;19.92;;;;;;;14.24;100.00;98759.63;4960141;29;20035;-90
2022/09/27 04:39:08;;;;;;;30.60;19.88;;;;;;;14.20;100.00;98777.09;4961186;29;20126;-88
2022/09/27 04:41:36;;;;;;;33.42;20.42;;;;;;;14.13;100.00;98771.03;4956421;29;20038;-87
2022/09/27 04:44:03;;;;;;;32.47;20.67;;;;;;;14.13;100.00;98769.19;4943771;29;20035;-86
2022/09/27 04:46:33;;;;;;;35.63;21.40;;;;;;;14.31;100.00;98765.66;4952791;29;20071;-85
2022/09/27 04:49:00;;;;;;;34.50;20.92;;;;;;;14.42;100.00;98764.88;4951488;29;20031;-85
2022/09/27 04:51:27;;;;;;;38.28;22.17;;;;;;;14.46;100.00;98763.38;4957444;28;20039;-80
2022/09/27 04:53:55;;;;;;;32.90;21.98;;;;;;;14.32;100.00;98764.59;4948650;28;20035;-85
2022/09/27 04:56:22;;;;;;;34.58;21.58;;;;;;;14.18;100.00;98749.88;4938999;29;20114;-83
2022/09/27 04:58:47;;;;;;;36.13;22.65;;;;;;;14.11;100.00;98746.50;4938317;29;20509;-85
2022/09/27 05:01:13;;;;;;;40.35;22.45;;;;;;;14.10;100.00;98755.50;4938545;29;20401;-84
2022/09/27 05:03:39;;;;;;;35.50;23.73;;;;;;;14.06;100.00;98757.00;4956073;29;20066;-81
2022/09/27 05:06:10;;;;;;;32.90;22.50;;;;;;;13.96;100.00;98757.56;4941643;29;20054;-82
2022/09/27 05:08:36;;;;;;;37.05;23.83;;;;;;;14.08;100.00;98760.28;4947732;29;20567;-84
2022/09/27 05:11:16;;;;;;;39.08;23.73;;;;;;;13.99;100.00;98760.56;4966243;29;20031;-85
2022/09/27 05:14:01;;;;;;;38.13;24.80;;;;;;;14.09;100.00;98756.53;4957734;29;20111;-86
2022/09/27 05:16:27;;;;;;;40.25;23.25;;;;;;;14.11;100.00;98760.63;4958730;29;20038;-87
2022/09/27 05:19:25;;;;;;;41.30;23.15;;;;;;;14.16;100.00;98758.06;4968466;29;20035;-83
2022/09/27 05:22:13;;;;;;;40.28;23.48;;;;;;;14.10;100.00;98766.16;4958384;29;20106;-88
2022/09/27 05:24:39;;;;;;;44.95;24.27;;;;;;;14.21;100.00;98765.41;4909248;29;20062;-86
2022/09/27 05:27:08;;;;;;;42.95;24.02;;;;;;;14.14;100.00;98770.81;4942487;29;20043;-87
2022/09/27 05:29:35;;;;;;;37.13;25.33;;;;;;;14.16;100.00;98763.41;4962399;29;20090;-88
2022/09/27 05:32:07;;;;;;;39.58;24.90;;;;;;;14.23;100.00;98757.97;4944169;29;20572;-82
2022/09/27 05:34:33;;;;;;;38.13;24.67;;;;;;;14.19;100.00;98759.47;4959221;29;20082;-87
2022/09/27 05:36:59;;;;;;;39.35;25.38;;;;;;;14.23;100.00;98773.97;4959344;29;20393;-84
2022/09/27 05:39:26;;;;;;;44.05;27.00;;;;;;;14.49;100.00;98768.25;4942817;29;20127;-87
2022/09/27 05:41:53;;;;;;;44.08;26.15;;;;;;;14.66;100.00;98769.19;4926701;29;20058;-89
2022/09/27 05:44:19;;;;;;;44.00;26.30;;;;;;;15.12;100.00;98767.56;4957451;29;20042;-89
2022/09/27 05:46:54;;;;;;;40.88;25.88;;;;;;;15.26;100.00;98775.09;4938343;29;20043;-89
2022/09/27 05:49:19;;;;;;;43.65;25.90;;;;;;;15.37;100.00;98781.47;4940753;29;20428;-90
2022/09/27 05:51:46;;;;;;;39.65;26.48;;;;;;;15.48;100.00;98788.66;4922926;29;20126;-89
2022/09/27 05:54:11;;;;;;;37.42;25.42;;;;;;;15.72;100.00;98790.22;4939743;29;20039;-90
2022/09/27 05:56:37;;;;;;;44.85;25.80;;;;;;;16.19;100.00;98795.38;4938952;29;20581;-90
2022/09/27 05:59:15;;;;;;;37.00;25.65;;;;;;;16.20;100.00;98799.69;4941884;29;20039;-89
2022/09/27 06:02:10;;;;;;;37.15;25.95;;;;;;;16.10;100.00;98808.31;4919130;29;20413;-92
2022/09/27 06:04:51;;;;;;;41.30;26.23;;;;;;;16.41;100.00;98812.34;4942582;29;20058;-91
2022/09/27 06:07:38;;;;;;;40.83;24.95;;;;;;;16.84;100.00;98811.72;4941819;29;20067;-90
2022/09/27 06:10:07;;;;;;;39.88;23.70;;;;;;;16.56;100.00;98809.97;4935607;29;20043;-90
2022/09/27 06:12:33;;;;;;;40.85;24.65;;;;;;;16.56;100.00;98818.00;4942025;29;20039;-88
2022/09/27 06:14:59;;;;;;;38.10;23.90;;;;;;;16.51;100.00;98815.19;4942302;29;20525;-88
2022/09/27 06:17:34;;;;;;;39.45;22.92;;;;;;;16.80;100.00;98816.78;4941854;29;20035;-87
2022/09/27 06:20:03;;;;;;;30.45;21.70;;;;;;;16.94;100.00;98822.59;4942537;29;20401;-90
2022/09/27 06:22:29;;;;;;;38.22;22.25;;;;;;;17.13;100.00;98815.13;4943387;29;20439;-90
2022/09/27 06:24:59;;;;;;;38.47;24.45;;;;;;;16.80;100.00;98808.75;4943513;29;20035;-89
2022/09/27 06:27:29;;;;;;;36.55;24.15;;;;;;;16.99;100.00;98811.97;4942592;29;20038;-87
2022/09/27 06:30:04;;;;;;;37.50;22.88;;;;;;;17.10;100.00;98813.75;4927824;29;20089;-88
2022/09/27 06:32:44;;;;;;;34.97;24.05;;;;;;;17.29;100.00;98809.75;4941950;29;20048;-88
2022/09/27 06:35:19;;;;;;;38.22;24.70;;;;;;;17.73;100.00;98817.84;4940994;29;20042;-87
2022/09/27 06:37:45;;;;;;;39.17;23.48;;;;;;;18.66;100.00;98811.31;4925006;29;20039;-85
2022/09/27 06:40:10;;;;;;;37.55;22.13;;;;;;;18.72;100.00;98819.16;4958305;29;20045;-88
2022/09/27 06:43:03;;;;;;;37.78;20.17;;;;;;;19.83;100.00;98821.72;4958012;29;20051;-87
2022/09/27 06:46:05;;;;;;;32.83;21.80;;;;;;;19.81;100.00;98830.06;4936227;29;20497;-84
2022/09/27 06:49:02;;;;;;;30.05;21.50;;;;;;;19.97;100.00;98831.72;4942776;29;20070;-84
2022/09/27 06:51:28;;;;;;;30.30;20.98;;;;;;;19.25;100.00;98817.38;4943159;29;20142;-86
2022/09/27 06:53:54;;;;;;;35.13;21.23;;;;;;;19.70;100.00;98823.03;4958116;29;20512;-87
2022/09/27 06:56:20;;;;;;;29.60;21.33;;;;;;;19.52;100.00;98818.91;4957932;29;20031;-84
2022/09/27 07:01:42;;;;;;;31.35;19.45;;;;;;;20.88;100.00;98826.50;4958221;29;20045;-88
2022/09/27 07:04:26;;;;;;;27.55;19.63;;;;;;;20.79;100.00;98828.13;4960060;29;20071;-87
2022/09/27 07:07:24;;;;;;;29.73;20.67;;;;;;;20.03;100.00;98833.38;4914919;29;20135;-89
2022/09/27 07:09:49;;;;;;;35.42;21.05;;;;;;;20.49;100.00;98836.19;4941787;29;20067;-87
2022/09/27 07:12:15;;;;;;;29.60;20.48;;;;;;;20.64;100.00;98846.97;4925071;29;20039;-88
2022/09/27 07:14:41;;;;;;;41.28;21.77;;;;;;;20.67;100.00;98842.94;4942863;29;20061;-88
2022/09/27 07:17:12;;;;;;;28.95;20.30;;;;;;;21.25;100.00;98833.50;4941006;29;20046;-90
2022/09/27 07:19:41;;;;;;;26.65;19.58;;;;;;;21.29;100.00;98831.88;4941105;29;20039;-90
2022/09/27 07:22:08;;;;;;;31.65;19.45;;;;;;;21.09;100.00;98828.13;4940702;29;20043;-86
2022/09/27 07:24:34;;;;;;;33.40;20.17;;;;;;;21.07;100.00;98832.16;4941616;29;20401;-93
2022/09/27 07:27:00;;;;;;;31.92;20.85;;;;;;;20.89;100.00;98836.22;4941106;29;20035;-88
2022/09/27 07:29:26;;;;;;;28.20;21.15;;;;;;;21.24;100.00;98831.91;4940966;29;20047;-89
2022/09/27 07:31:52;;;;;;;29.60;20.95;;;;;;;21.00;100.00;98834.31;4946650;29;20046;-87
2022/09/27 07:34:20;;;;;;;30.67;20.83;;;;;;;20.94;100.00;98833.53;4925453;29;20043;-88
2022/09/27 07:36:46;;;;;;;25.73;20.98;;;;;;;20.87;100.00;98835.69;4940326;29;20393;-86
2022/09/27 07:39:12;;;;;;;29.25;21.35;;;;;;;21.11;100.00;98835.97;4917286;29;20029;-88
2022/09/27 07:41:39;;;;;;;32.58;21.67;;;;;;;21.50;100.00;98838.84;4940101;29;20122;-87
2022/09/27 07:44:05;;;;;;;29.88;21.48;;;;;;;21.30;100.00;98841.59;4940471;29;20377;-88
2022/09/27 07:46:33;;;;;;;30.77;20.40;;;;;;;21.73;100.00;98846.31;4925448;29;20036;-91
2022/09/27 07:49:07;;;;;;;28.92;19.88;;;;;;;22.49;96.00;98859.47;4942082;29;20043;-85
2022/09/27 07:51:51;;;;;;;31.48;20.25;;;;;;;22.68;92.63;98860.44;4961865;29;20054;-87
2022/09/27 07:54:36;;;;;;;28.92;20.75;;;;;;;22.98;92.72;98857.50;4967093;29;20098;-87
2022/09/27 07:57:04;;;;;;;31.27;18.65;;;;;;;23.87;88.04;98861.50;4966359;29;20043;-87
2022/09/27 07:59:30;;;;;;;27.85;19.73;;;;;;;23.56;87.80;98857.53;4947198;29;20122;-87
2022/09/27 08:01:56;;;;;;;35.10;20.40;;;;;;;22.37;93.24;98862.50;4947951;29;20050;-86
2022/09/27 08:04:22;;;;;;;35.38;20.40;;;;;;;22.95;92.42;98860.78;4943040;29;20086;-87
2022/09/27 08:06:47;;;;;;;27.73;20.20;;;;;;;22.98;89.50;98857.50;4958772;29;20031;-88
2022/09/27 08:09:13;;;;;;;31.95;20.85;;;;;;;22.78;89.86;98849.56;4941262;29;20039;-86
2022/09/27 08:11:40;;;;;;;28.60;21.45;;;;;;;22.73;90.18;98855.00;4940681;29;20467;-87
2022/09/27 08:14:09;;;;;;;33.22;21.35;;;;;;;22.72;92.79;98848.00;4940508;29;20035;-91
2022/09/27 08:16:36;;;;;;;31.50;19.48;;;;;;;22.91;90.87;98857.03;4940433;29;20027;-89
2022/09/27 08:19:28;;;;;;;29.02;19.85;;;;;;;24.25;83.15;98864.28;4927249;29;20094;-89
2022/09/27 08:22:28;;;;;;;27.70;18.95;;;;;;;24.41;80.18;98861.09;4946185;29;20342;-88
2022/09/27 08:24:58;;;;;;;26.27;18.88;;;;;;;25.29;76.00;98856.75;4957123;29;20660;-87
2022/09/27 08:27:41;;;;;;;29.00;18.23;;;;;;;26.03;72.32;98867.25;4939506;29;20054;-92
2022/09/27 08:30:32;;;;;;;26.27;19.00;;;;;;;24.39;79.74;98862.47;4941149;29;20035;-92
2022/09/27 08:33:02;;;;;;;26.70;18.10;;;;;;;23.91;80.87;98859.81;4941482;29;20456;-90
2022/09/27 08:35:28;;;;;;;26.95;17.42;;;;;;;24.15;79.36;98860.63;4943409;29;20062;-88
2022/09/27 08:37:59;;;;;;;31.00;18.27;;;;;;;24.18;80.42;98857.34;4940711;29;20038;-88
2022/09/27 08:40:57;;;;;;;24.75;16.70;;;;;;;24.30;79.75;98864.22;4942340;29;20111;-88
2022/09/27 08:44:02;;;;;;;25.83;17.13;;;;;;;23.88;81.81;98865.81;4932028;29;20097;-85
2022/09/27 08:46:34;;;;;;;25.27;16.27;;;;;;;23.80;81.80;98866.44;4937508;29;20051;-86
2022/09/27 08:49:13;;;;;;;22.23;16.33;;;;;;;24.17;81.27;98866.56;4956752;29;20094;-90
2022/09/27 08:51:40;;;;;;;22.83;15.73;;;;;;;24.55;77.76;98869.28;4956922;28;20031;-89
2022/09/27 08:54:31;;;;;;;25.10;15.18;;;;;;;24.82;75.80;98869.44;4958148;29;20035;-83
2022/09/27 08:57:03;;;;;;;21.27;15.27;;;;;;;24.96;76.21;98859.44;4936521;29;20546;-86
2022/09/27 08:59:59;;;;;;;20.17;16.17;;;;;;;24.93;77.35;98860.03;4938489;29;20172;-82
2022/09/27 09:02:26;;;;;;;23.98;17.20;;;;;;;24.80;78.14;98858.06;4938681;29;20460;-84
2022/09/27 09:05:20;;;;;;;22.65;15.75;;;;;;;25.18;75.75;98862.34;4938392;29;20493;-87
2022/09/27 09:08:18;;;;;;;24.27;15.77;;;;;;;25.00;77.06;98849.63;4903577;29;20039;-84
2022/09/27 09:13:43;;;;;;;22.23;14.93;;;;;;;25.27;76.00;98839.94;4939145;29;20401;-87
2022/09/27 09:16:36;;;;;;;16.98;13.13;;;;;;;25.75;72.45;98843.94;4937125;29;20473;-87
2022/09/27 09:19:30;;;;;;;18.40;13.50;;;;;;;26.43;70.48;98846.59;4939987;29;20073;-86
2022/09/27 09:23:02;;;;;;;21.10;14.05;;;;;;;27.02;67.43;98840.03;4954893;29;20031;-89
2022/09/27 09:25:53;;;;;;;20.23;14.27;;;;;;;26.27;70.36;98833.66;4938257;29;20553;-88
2022/09/27 09:28:31;;;;;;;20.50;14.43;;;;;;;26.85;67.74;98839.91;4935057;29;20051;-88
2022/09/27 09:31:28;;;;;;;18.33;12.98;;;;;;;26.49;67.21;98837.19;4940565;29;20070;-91
2022/09/27 09:34:22;;;;;;;22.88;13.15;;;;;;;26.62;66.74;98832.81;4949033;29;20055;-86
2022/09/27 09:37:01;;;;;;;17.77;13.38;;;;;;;27.00;58.51;98831.38;4953311;29;20044;-86
2022/09/27 09:39:37;;;;;;;19.13;13.85;;;;;;;26.49;60.70;98825.53;4957240;28;20066;-85
2022/09/27 09:42:17;;;;;;;20.05;12.35;;;;;;;27.31;56.90;98836.03;4959351;28;20031;-87
2022/09/27 09:44:55;;;;;;;18.48;12.10;;;;;;;27.61;55.89;98825.13;4957659;29;20035;-83
2022/09/27 09:47:36;;;;;;;18.67;12.40;;;;;;;27.71;57.47;98818.59;4925042;29;20046;-87
2022/09/27 09:50:31;;;;;;;21.98;11.85;;;;;;;27.91;55.32;98818.03;4941001;29;20489;-88
2022/09/27 09:53:13;;;;;;;20.75;13.55;;;;;;;28.47;53.64;98819.09;4939937;29;20060;-88
2022/09/27 09:55:44;;;;;;;20.13;12.87;;;;;;;28.27;53.32;98819.72;4956332;29;20051;-89
2022/09/27 09:58:45;;;;;;;30.25;12.60;;;;;;;28.75;53.04;98820.38;4939197;29;20090;-90
2022/09/27 10:01:23;;;;;;;17.63;11.73;;;;;;;29.79;48.98;98820.91;4939338;29;20043;-86
2022/09/27 10:03:50;;;;;;;17.73;12.23;;;;;;;28.91;48.77;98826.13;4957992;29;20371;-88
2022/09/27 10:06:17;;;;;;;16.42;12.52;;;;;;;29.14;48.63;98820.16;4941771;29;20050;-86
2022/09/27 10:08:43;;;;;;;16.02;11.80;;;;;;;28.86;49.12;98815.41;4956911;29;20044;-90
2022/09/27 10:11:29;;;;;;;16.27;12.40;;;;;;;29.18;47.48;98815.66;4941471;29;20043;-87
2022/09/27 10:14:13;;;;;;;16.75;11.43;;;;;;;28.63;47.92;98814.75;4942163;29;20106;-87
2022/09/27 10:16:44;;;;;;;10.50;8.40;;;;;;;28.66;47.14;98811.44;4940583;29;20115;-86
2022/09/27 10:19:11;;;;;;;11.02;7.45;;;;;;;29.77;44.66;98813.03;4970429;28;20079;-85
2022/09/27 10:21:41;;;;;;;14.02;9.55;;;;;;;29.88;43.63;98814.28;4963070;29;20027;-85
2022/09/27 10:24:09;;;;;;;15.75;9.45;;;;;;;29.76;43.83;98816.91;4929388;29;20051;-86
2022/09/27 10:27:00;;;;;;;13.75;8.93;;;;;;;30.03;43.28;98823.84;4946923;29;20062;-85
2022/09/27 10:29:33;;;;;;;17.45;10.10;;;;;;;30.61;41.45;98831.16;4939446;29;20058;-92
2022/09/27 10:32:03;;;;;;;13.23;8.60;;;;;;;29.93;42.00;98822.28;4939590;29;20040;-90
2022/09/27 10:34:41;;;;;;;14.82;7.82;;;;;;;31.11;39.01;98822.81;4938609;29;20142;-88
2022/09/27 10:37:16;;;;;;;12.48;8.57;;;;;;;31.10;37.37;98827.50;4940431;29;20038;-89
2022/09/27 10:39:53;;;;;;;13.43;8.25;;;;;;;30.36;39.09;98818.47;4942826;29;20062;-90
2022/09/27 10:42:37;;;;;;;14.70;7.90;;;;;;;30.66;38.24;98817.25;4939479;29;20093;-87
2022/09/27 10:45:25;;;;;;;12.00;6.80;;;;;;;31.57;35.95;98818.94;4939956;29;20058;-88
2022/09/27 10:48:00;;;;;;;16.77;8.55;;;;;;;29.77;39.94;98805.63;4941409;29;20040;-90
2022/09/27 10:50:58;;;;;;;11.45;8.40;;;;;;;30.54;38.17;98817.22;4958045;28;20042;-89
2022/09/27 10:53:35;;;;;;;11.95;7.90;;;;;;;30.38;38.60;98810.72;4947302;29;20489;-90
2022/09/27 10:56:40;;;;;;;10.27;7.50;;;;;;;30.76;37.16;98808.63;4949310;29;20508;-86
2022/09/27 10:59:07;;;;;;;12.85;7.32;;;;;;;31.02;36.34;98809.25;4939189;29;20055;-87
2022/09/27 11:01:44;;;;;;;13.27;8.05;;;;;;;31.81;35.57;98802.50;4942415;29;20042;-89
2022/09/27 11:05:19;;;;;;;12.68;8.10;;;;;;;30.79;36.71;98804.47;4948123;29;20078;-88
2022/09/27 11:07:49;;;;;;;14.32;7.50;;;;;;;31.03;36.79;98802.59;4941844;29;20039;-86
2022/09/27 11:10:30;;;;;;;11.32;7.43;;;;;;;31.61;35.19;98800.69;4926307;29;20408;-87
2022/09/27 11:13:22;;;;;;;12.23;6.90;;;;;;;32.00;34.44;98791.75;4926448;29;20039;-87
2022/09/27 11:16:09;;;;;;;8.13;6.90;;;;;;;32.57;33.48;98788.78;4939533;29;20054;-86
2022/09/27 11:18:41;;;;;;;11.27;5.55;;;;;;;33.23;31.09;98799.22;4941802;29;20043;-88
2022/09/27 11:21:13;;;;;;;;;;;;;;;33.03;31.73;98791.97;4960856;29;20114;-88
2022/09/27 11:23:55;;;;;;;7.82;5.78;;;;;;;32.25;32.63;98787.81;4945826;29;19951;-88
2022/09/27 11:26:51;;;;;;;9.38;5.68;;;;;;;31.00;34.60;98792.34;4941651;29;20038;-87
2022/09/27 11:29:38;;;;;;;7.97;4.68;;;;;;;31.90;32.79;98777.69;4941086;29;20039;-85
2022/09/27 11:32:25;;;;;;;8.90;4.63;;;;;;;33.41;30.58;98780.44;4945201;29;20520;-88
2022/09/27 11:35:09;;;;;;;10.80;5.75;;;;;;;33.69;29.49;98786.63;4941442;29;20130;-88
2022/09/27 11:38:14;;;;;;;9.18;5.55;;;;;;;32.63;30.66;98779.16;4942404;29;20123;-85
2022/09/27 11:41:07;;;;;;;8.23;5.63;;;;;;;34.04;29.03;98778.41;4937139;29;20051;-89
2022/09/27 11:43:41;;;;;;;8.48;5.82;;;;;;;34.52;28.39;98774.34;4944858;29;20031;-83
2022/09/27 11:46:34;;;;;;;12.55;6.70;;;;;;;34.08;29.09;98776.53;4940957;29;20417;-80
2022/09/27 11:49:21;;;;;;;11.70;6.78;;;;;;;35.42;26.72;98772.88;4941974;29;20499;-89
2022/09/27 11:52:18;;;;;;;15.48;5.22;;;;;;;35.15;26.23;98786.63;4927801;29;20039;-85
2022/09/27 11:55:06;;;;;;;14.25;5.90;;;;;;;33.84;27.91;98768.53;4923390;29;20070;-82
2022/09/27 11:57:44;;;;;;;6.85;4.22;;;;;;;32.29;30.37;98768.72;4943315;29;20074;-82
2022/09/27 12:00:27;;;;;;;22.05;7.95;;;;;;;30.39;33.10;98763.13;4944830;29;20121;-84
2022/09/27 12:03:37;;;;;;;12.98;6.25;;;;;;;28.97;35.21;98752.00;4942414;29;20485;-82
2022/09/27 12:06:11;;;;;;;8.10;4.57;;;;;;;27.43;37.74;98743.72;4944775;29;20043;-86
2022/09/27 12:08:58;;;;;;;7.53;3.08;;;;;;;27.14;37.46;98738.84;4927759;29;20126;-86